Latest Weather Observations for Tibooburra Airport

IDN60801

Issued at 8:03 pm EST Wednesday 5 August 2020 (issued every 10 minutes, with the page automatically refreshed every 10 minutes)

About weather observations | Map of weather stations | Latest weather observations for NSW | Other Formats
Station Details ID: 046126 Name: TIBOOBURRA AIRPORT Lat: -29.44 Lon: 142.06 Height: 176.4 m
Data from the previous 72 hours. | See also: Recent months at Tibooburra Airport
Date/Time
EST
Temp
°C
App
Temp
°C
Dew
Point
°C
Rel
Hum
%
Delta-T
°C
Wind Press
QNH
hPa
Press
MSL
hPa
Rain since
9am
mm
Dir  Spd
km/h
Gust
km/h
Spd
kts
Gust
kts
05/08:00pm 13.0 6.4 -9.4 20 7.6 SE 19 26 10 14 1016.0 1015.9 0.0
05/07:30pm 13.4 6.9 -8.4 21 7.6 ESE 19 22 10 12 1015.8 1015.7 0.0
05/07:00pm 13.9 7.4 -8.0 21 7.7 SE 19 22 10 12 1015.8 1015.7 0.0
05/06:30pm 14.2 7.5 -7.8 21 7.8 SE 20 26 11 14 1015.6 1015.5 0.0
05/06:00pm 14.7 7.7 -7.4 21 8.0 SE 22 28 12 15 1015.6 1015.5 0.0
05/05:30pm 15.4 8.1 -6.8 21 8.2 ESE 24 30 13 16 1015.3 1015.2 0.0
05/05:00pm 16.4 8.7 -6.6 20 8.6 ESE 26 32 14 17 1015.3 1015.2 0.0
05/04:30pm 16.3 9.0 -6.0 21 8.5 ESE 24 30 13 16 1015.3 1015.2 0.0
05/04:00pm 16.4 9.8 -6.6 20 8.6 ESE 20 30 11 16 1015.7 1015.6 0.0
05/03:30pm 16.3 9.3 -6.7 20 8.6 ESE 22 30 12 16 1015.9 1015.8 0.0
05/03:00pm 16.3 9.7 -6.7 20 8.6 ESE 20 32 11 17 1015.9 1015.8 0.0
05/02:30pm 15.9 8.6 -6.4 21 8.4 E 24 43 13 23 1016.0 1015.9 0.0
05/02:00pm 15.9 8.2 -6.4 21 8.3 ESE 26 35 14 19 1016.3 1016.2 0.0
05/01:30pm 15.8 7.7 -6.5 21 8.3 E 28 37 15 20 1016.8 1016.7 0.0
05/01:00pm 15.0 6.9 -6.5 22 7.9 E 28 37 15 20 1017.3 1017.2 0.0
05/12:30pm 14.3 6.2 -6.5 23 7.6 E 28 37 15 20 1017.9 1017.8 0.0
05/12:00pm 13.6 5.5 -7.1 23 7.4 E 28 37 15 20 1018.6 1018.5 0.0
05/11:30am 13.2 4.3 -7.4 23 7.3 E 32 39 17 21 1019.1 1019.0 0.0
05/11:00am 12.7 3.6 -7.3 24 7.0 E 33 43 18 23 1019.5 1019.4 0.0
05/10:30am 11.7 2.6 -7.1 26 6.6 E 33 43 18 23 1019.8 1019.7 0.0
05/10:00am 11.5 3.1 -6.3 28 6.3 E 30 39 16 21 1019.7 1019.6 0.0
05/09:30am 10.1 2.1 -6.2 31 5.7 E 28 35 15 19 1019.8 1019.7 0.0
05/09:00am 9.2 0.7 -7.0 31 5.5 E 30 39 16 21 1019.5 1019.4 0.0
05/08:30am 7.9 0.5 -7.0 34 5.0 E 24 30 13 16 1019.3 1019.2 0.0
05/08:00am 6.6 0.6 -7.0 37 4.5 E 17 20 9 11 1019.2 1019.1 0.0
05/07:30am 6.2 -0.2 -7.0 38 4.3 ESE 19 22 10 12 1018.9 1018.8 0.0
05/07:00am 6.1 0.1 -6.8 39 4.2 SE 17 22 9 12 1018.7 1018.6 0.0
05/06:30am 6.4 0.0 -6.5 39 4.3 SE 19 22 10 12 1018.3 1018.2 0.0
05/06:00am 6.7 0.4 -6.3 39 4.3 ESE 19 24 10 13 1018.0 1017.9 0.0
05/05:30am 7.1 0.6 -5.6 40 4.4 SE 20 26 11 14 1017.6 1017.5 0.0
05/05:00am 7.2 0.8 -4.8 42 4.2 SE 20 26 11 14 1017.3 1017.2 0.0
05/04:30am 7.3 1.2 -4.1 44 4.1 SE 19 24 10 13 1017.3 1017.2 0.0
05/04:00am 7.4 1.8 -2.9 48 3.8 SE 17 22 9 12 1017.4 1017.3 0.0
05/03:30am 7.8 2.3 -2.0 50 3.7 SE 17 20 9 11 1017.4 1017.3 0.0
05/03:00am 8.4 2.6 -1.4 50 3.8 SE 19 24 10 13 1017.7 1017.6 0.0
05/02:30am 8.9 3.3 -0.1 53 3.6 SSE 19 22 10 12 1017.6 1017.5 0.0
05/02:00am 9.3 3.9 1.2 57 3.4 SSE 19 26 10 14 1017.7 1017.6 0.0
05/01:30am 10.0 4.6 1.4 55 3.6 SE 19 22 10 12 1017.7 1017.6 0.0
05/01:00am 10.3 4.7 1.4 54 3.7 SE 20 26 11 14 1017.7 1017.6 0.0
05/12:30am 10.7 5.2 1.8 54 3.8 SE 20 26 11 14 1017.8 1017.7 0.0
05/12:00am 10.9 5.1 2.5 56 3.6 SE 22 28 12 15 1017.9 1017.8 0.0
 
Date/Time
EST
Temp
°C
App
Temp
°C
Dew
Point
°C
Rel
Hum
%
Delta-T
°C
Wind Press
QNH
hPa
Press
MSL
hPa
Rain since
9am
mm
Dir  Spd
km/h
Gust
km/h
Spd
kts
Gust
kts
04/11:30pm 11.2 5.9 2.8 56 3.7 SSE 20 28 11 15 1018.0 1017.9 0.0
04/11:00pm 11.6 6.3 2.9 55 3.8 SSE 20 28 11 15 1018.1 1018.0 0.0
04/10:30pm 11.9 6.2 2.6 53 4.1 SE 22 30 12 16 1017.9 1017.8 0.0
04/10:00pm 12.5 7.1 2.4 50 4.4 SSE 20 28 11 15 1017.7 1017.6 0.0
04/09:30pm 13.0 7.2 2.3 48 4.7 SSE 22 26 12 14 1017.4 1017.3 0.0
04/09:00pm 13.6 7.8 2.2 46 5.0 SSE 22 30 12 16 1017.3 1017.2 0.0
04/08:30pm 14.4 8.6 2.3 44 5.4 SSE 22 28 12 15 1017.0 1016.9 0.0
04/08:00pm 14.8 9.4 2.4 43 5.5 SSE 20 24 11 13 1016.6 1016.5 0.0
04/07:30pm 15.5 10.1 2.3 41 5.9 SSE 20 30 11 16 1016.3 1016.2 0.0
04/07:00pm 16.0 10.6 2.4 40 6.2 SSE 20 26 11 14 1015.8 1015.7 0.0
04/06:30pm 16.8 10.6 2.4 38 6.6 SSE 24 35 13 19 1015.4 1015.3 0.0
04/06:00pm 17.6 11.4 2.0 35 7.1 SSE 24 32 13 17 1015.0 1014.9 0.0
04/05:30pm 19.0 12.7 1.5 31 8.0 SSE 24 32 13 17 1014.7 1014.6 0.0
04/05:00pm 19.7 13.7 1.2 29 8.4 SSE 22 30 12 16 1014.4 1014.3 0.0
04/04:30pm 20.5 14.9 0.9 27 8.9 SSE 20 26 11 14 1014.2 1014.1 0.0
04/04:00pm 20.5 14.9 0.9 27 8.9 SSE 20 28 11 15 1014.2 1014.1 0.0
04/03:30pm 21.4 15.9 0.6 25 9.5 S 19 28 10 15 1014.1 1014.0 0.0
04/03:00pm 21.3 16.1 -0.1 24 9.6 S 17 26 9 14 1014.2 1014.1 0.0
04/02:30pm 21.2 16.0 -0.1 24 9.6 SSE 17 24 9 13 1014.4 1014.3 0.0
04/02:00pm 20.7 15.0 -0.6 24 9.4 SSE 19 24 10 13 1014.6 1014.5 0.0
04/01:30pm 20.6 14.8 -1.2 23 9.5 SSE 19 26 10 14 1014.9 1014.8 0.0
04/01:00pm 21.3 16.1 -2.5 20 10.2 SSE 15 20 8 11 1015.3 1015.2 0.0
04/12:30pm 20.4 14.8 -3.3 20 9.9 S 17 26 9 14 1015.9 1015.8 0.0
04/12:00pm 19.9 14.6 -3.7 20 9.7 SSE 15 20 8 11 1016.3 1016.2 0.0
04/11:30am 20.3 15.4 -3.4 20 9.9 S 13 17 7 9 1016.5 1016.4 0.0
04/11:00am 19.8 14.9 -3.8 20 9.7 SSE 13 17 7 9 1016.6 1016.5 0.0
04/10:30am 19.0 14.1 -3.2 22 9.2 S 13 17 7 9 1016.7 1016.6 0.0
04/10:00am 17.4 12.9 -3.4 24 8.4 SSE 11 13 6 7 1016.5 1016.4 0.0
04/09:30am 15.6 10.8 -2.8 28 7.4 S 13 17 7 9 1016.4 1016.3 0.0
04/09:00am 14.0 9.6 -2.8 31 6.7 SSW 11 17 6 9 1016.1 1016.1 0.0
04/08:30am 12.8 8.2 -3.9 31 6.4 SSW 11 17 6 9 1015.8 1015.7 0.0
04/08:00am 11.6 8.3 -4.1 33 5.9 NW 4 7 2 4 1015.4 1015.3 0.0
04/07:30am 13.0 10.5 -3.7 31 6.4 CALM 0 0 0 0 1015.1 1015.0 0.0
04/07:00am 12.1 9.6 -3.7 33 6.0 CALM 0 0 0 0 1014.9 1014.8 0.0
04/06:30am 11.6 8.0 -3.7 34 5.8 WSW 6 7 3 4 1014.6 1014.5 0.0
04/06:00am 12.7 10.4 -2.7 34 6.0 CALM 0 0 0 0 1014.3 1014.2 0.0
04/05:30am 11.6 9.1 -4.1 33 5.9 CALM 0 0 0 0 1014.1 1014.0 0.0
04/05:00am 12.8 10.4 -3.5 32 6.3 CALM 0 0 0 0 1014.2 1014.1 0.0
04/04:30am 12.9 10.5 -3.0 33 6.2 CALM 0 0 0 0 1014.2 1014.1 0.0
04/04:00am 12.8 10.4 -3.0 33 6.2 CALM 0 0 0 0 1014.5 1014.4 0.0
04/03:30am 11.3 7.5 -3.6 35 5.6 WSW 7 9 4 5 1014.9 1014.8 0.0
04/03:00am 11.0 6.8 -4.2 34 5.6 WSW 9 11 5 6 1015.2 1015.1 0.0
04/02:30am 11.1 6.9 -4.1 34 5.7 WSW 9 11 5 6 1015.5 1015.4 0.0
04/02:00am 11.5 7.3 -4.2 33 5.9 WSW 9 9 5 5 1015.7 1015.6 0.0
04/01:30am 11.8 7.2 -4.3 32 6.0 WSW 11 11 6 6 1015.9 1015.8 0.0
04/01:00am 12.1 7.8 -4.5 31 6.2 WSW 9 11 5 6 1015.7 1015.6 0.0
04/12:30am 12.7 8.8 -4.4 30 6.5 WSW 7 9 4 5 1015.5 1015.4 0.0
04/12:00am 12.3 8.0 -5.2 29 6.5 WSW 9 11 5 6 1015.8 1015.7 0.0
 
Date/Time
EST
Temp
°C
App
Temp
°C
Dew
Point
°C
Rel
Hum
%
Delta-T
°C
Wind Press
QNH
hPa
Press
MSL
hPa
Rain since
9am
mm
Dir  Spd
km/h
Gust
km/h
Spd
kts
Gust
kts
03/11:30pm 14.3 9.7 -4.4 27 7.2 WSW 11 11 6 6 1015.8 1015.7 0.0
03/11:00pm 13.3 8.6 -4.8 28 6.8 WSW 11 13 6 7 1015.9 1015.8 0.0
03/10:30pm 13.5 9.1 -5.6 26 7.1 S 9 13 5 7 1016.0 1015.9 0.0
03/10:00pm 15.5 12.9 -5.0 24 7.9 CALM 0 0 0 0 1016.0 1015.9 0.0
03/09:30pm 16.0 13.3 -5.7 22 8.3 CALM 0 6 0 3 1016.1 1016.1 0.0
03/09:00pm 18.3 14.4 -5.0 20 9.2 WSW 7 7 4 4 1015.8 1015.7 0.0
03/08:30pm 18.4 14.4 -5.6 19 9.4 W 7 7 4 4 1015.6 1015.5 0.0
03/08:00pm 18.8 14.5 -5.3 19 9.5 W 9 9 5 5 1015.5 1015.4 0.0
03/07:30pm 18.8 14.5 -5.3 19 9.5 W 9 11 5 6 1015.2 1015.1 0.0
03/07:00pm 19.2 14.4 -5.7 18 9.8 W 11 11 6 6 1015.1 1015.0 0.0
03/06:30pm 20.0 15.2 -5.8 17 10.2 W 11 13 6 7 1015.0 1014.9 0.0
03/06:00pm 21.7 17.3 -6.0 15 11.1 W 9 13 5 7 1014.8 1014.7 0.0
03/05:30pm 23.1 17.9 -5.8 14 11.8 W 13 20 7 11 1014.7 1014.6 0.0
03/05:00pm 23.9 19.1 -6.2 13 12.3 WNW 11 17 6 9 1014.6 1014.5 0.0
03/04:30pm 24.6 20.2 -5.6 13 12.6 WSW 9 17 5 9 1014.7 1014.6 0.0
03/04:00pm 24.5 19.3 -5.7 13 12.5 WNW 13 22 7 12 1014.8 1014.7 0.0
03/03:30pm 24.6 20.2 -5.6 13 12.6 W 9 19 5 10 1015.1 1015.0 0.0
03/03:00pm 24.4 19.6 -5.8 13 12.5 W 11 20 6 11 1015.2 1015.1 0.0
03/02:30pm 24.2 18.3 -5.9 13 12.4 NW 17 22 9 12 1015.5 1015.4 0.0
03/02:00pm 24.3 19.3 -4.0 15 12.1 N 13 24 7 13 1015.9 1015.8 0.0
03/01:30pm 24.0 19.5 -3.3 16 11.8 N 11 20 6 11 1016.6 1016.5 0.0
03/01:00pm 23.6 18.9 -2.1 18 11.3 N 13 19 7 10 1017.2 1017.1 0.0
03/12:30pm 22.7 17.7 -1.4 20 10.7 N 15 20 8 11 1017.9 1017.8 0.0
03/12:00pm 21.6 16.7 -0.4 23 9.8 N 15 20 8 11 1018.5 1018.4 0.0
03/11:30am 20.1 15.1 -1.1 24 9.3 NNE 15 20 8 11 1018.8 1018.7 0.0
03/11:00am 19.1 13.8 -0.8 26 8.6 N 17 20 9 11 1019.2 1019.1 0.0
03/10:30am 17.6 11.9 -0.6 29 7.8 NNE 19 24 10 13 1019.6 1019.5 0.0
03/10:00am 16.8 11.1 -0.4 31 7.4 NNE 19 24 10 13 1019.8 1019.7 0.0
03/09:30am 14.8 9.9 -0.5 35 6.4 NE 15 19 8 10 1019.7 1019.6 0.0
03/09:00am 12.6 8.3 -1.3 38 5.6 NE 11 13 6 7 1019.8 1019.7 0.0
03/08:30am 11.3 7.0 -1.5 41 5.1 ENE 11 11 6 6 1019.7 1019.6 0.0
03/08:00am 10.6 6.3 -1.4 43 4.7 ENE 11 13 6 7 1019.6 1019.5 0.0
03/07:30am 9.8 5.9 -1.6 45 4.4 ENE 9 9 5 5 1019.7 1019.6 0.0
03/07:00am 9.5 5.6 -1.8 45 4.4 E 9 9 5 5 1019.4 1019.3 0.0
03/06:30am 9.8 5.8 -1.9 44 4.5 E 9 11 5 6 1019.3 1019.2 0.0
03/06:00am 10.1 5.8 -1.9 43 4.6 E 11 13 6 7 1019.0 1018.9 0.0
03/05:30am 10.4 6.4 -1.9 42 4.8 E 9 9 5 5 1018.9 1018.8 0.0
03/05:00am 11.0 6.6 -2.1 40 5.1 E 11 11 6 6 1018.9 1018.8 0.0
03/04:30am 10.6 5.9 -2.1 41 4.9 ENE 13 13 7 7 1019.0 1018.9 0.0
03/04:00am 10.6 5.8 -2.4 40 5.0 ENE 13 13 7 7 1019.1 1019.0 0.0
03/03:30am 11.2 6.5 -1.9 40 5.2 ENE 13 15 7 8 1019.3 1019.2 0.0
03/03:00am 11.1 6.8 -2.0 40 5.1 E 11 13 6 7 1019.4 1019.3 0.0
03/02:30am 11.6 7.4 -1.2 41 5.1 E 11 11 6 6 1019.7 1019.6 0.0
03/02:00am 11.0 7.5 -1.4 42 4.9 E 7 9 4 5 1019.9 1019.8 0.0
03/01:30am 11.8 7.9 -1.3 40 5.3 E 9 11 5 6 1020.3 1020.2 0.0
03/01:00am 11.9 7.6 -1.6 39 5.4 E 11 11 6 6 1020.3 1020.2 0.0
03/12:30am 12.5 8.2 -1.4 38 5.6 ESE 11 13 6 7 1020.5 1020.4 0.0
03/12:00am 12.7 8.4 -1.6 37 5.7 ESE 11 11 6 6 1020.6 1020.5 0.0
 
Date/Time
EST
Temp
°C
App
Temp
°C
Dew
Point
°C
Rel
Hum
%
Delta-T
°C
Wind Press
QNH
hPa
Press
MSL
hPa
Rain since
9am
mm
Dir  Spd
km/h
Gust
km/h
Spd
kts
Gust
kts
02/11:30pm 12.5 8.2 -1.8 37 5.7 E 11 13 6 7 1020.5 1020.4 0.0
02/11:00pm 12.5 8.5 -2.5 35 5.9 SSE 9 11 5 6 1020.8 1020.7 0.0
02/10:30pm 13.6 9.2 -2.3 33 6.4 ESE 11 13 6 7 1020.8 1020.7 0.0
02/10:00pm 13.9 9.5 -2.1 33 6.4 ESE 11 13 6 7 1020.8 1020.7 0.0
02/09:30pm 14.5 9.8 -2.0 32 6.7 E 13 13 7 7 1021.0 1021.0 0.0
02/09:00pm 14.6 10.2 -2.3 31 6.8 E 11 13 6 7 1021.1 1021.1 0.0
02/08:30pm 15.2 10.8 -2.2 30 7.1 ESE 11 11 6 6 1021.0 1021.0 0.0

Other formats

Comma delimited format used in spreadsheet applications
http://www.bom.gov.au/fwo/IDN60801/IDN60801.95485.axf

JavaScript Object Notation format (JSON) in row-major order
http://www.bom.gov.au/fwo/IDN60801/IDN60801.95485.json

Data quality

Most of these data are generated automatically and are frequently updated. Quality checks on data are not normally performed. It is possible for incorrect values to appear. Refer to information at About Latest Weather Observations and please check the disclaimer before using these data.